Terminal Aerodrome Forecast
Issued by NWS

Home | Current Version | Previous Version | Text Only | Print | Product List | Glossary On
Versions: 1 2 3 4 5 6 7 8 9 10 11 12 13 14 15 16 17 18 19 20 21 22 23 24 25 26 27 28 29
000
FTUS44 KHGX 211126
TAFIAH
TAF
KIAH 211126Z 2112/2218 12005KT P6SM SCT035 BKN250
     FM211600 16006KT P6SM BKN035 BKN250
     FM211900 20005KT P6SM SCT035 BKN250
     FM220000 02007KT P6SM VCSH BKN035
     FM220900 36010G20KT P6SM BKN025
     FM221500 01014G24KT P6SM SCT025=

USA.gov is the U.S. government's official web portal to all federal, state and local government web resources and services.